sensor_id;sensor_type;location;lat;lon;timestamp;P1;durP1;ratioP1;P2;durP2;ratioP2
79585;SDS011;69054;50.866;4.636;2023-04-24T00:02:09;16.98;;;9.60;;
79585;SDS011;69054;50.866;4.636;2023-04-24T00:04:36;19.08;;;11.07;;
79585;SDS011;69054;50.866;4.636;2023-04-24T00:07:05;14.18;;;7.80;;
79585;SDS011;69054;50.866;4.636;2023-04-24T00:09:31;20.02;;;8.85;;
79585;SDS011;69054;50.866;4.636;2023-04-24T00:11:57;15.13;;;8.65;;
79585;SDS011;69054;50.866;4.636;2023-04-24T00:14:23;16.23;;;8.50;;
79585;SDS011;69054;50.866;4.636;2023-04-24T00:16:48;17.35;;;9.30;;
79585;SDS011;69054;50.866;4.636;2023-04-24T00:19:14;19.85;;;9.20;;
79585;SDS011;69054;50.866;4.636;2023-04-24T00:21:40;13.10;;;8.50;;
79585;SDS011;69054;50.866;4.636;2023-04-24T00:24:06;18.83;;;10.43;;
79585;SDS011;69054;50.866;4.636;2023-04-24T00:26:34;18.35;;;9.70;;
79585;SDS011;69054;50.866;4.636;2023-04-24T00:28:59;19.92;;;10.35;;
79585;SDS011;69054;50.866;4.636;2023-04-24T00:31:24;12.45;;;8.18;;
79585;SDS011;69054;50.866;4.636;2023-04-24T00:33:50;17.13;;;9.45;;
79585;SDS011;69054;50.866;4.636;2023-04-24T00:36:15;14.55;;;9.07;;
79585;SDS011;69054;50.866;4.636;2023-04-24T00:38:41;20.13;;;11.40;;
79585;SDS011;69054;50.866;4.636;2023-04-24T00:41:06;25.90;;;12.55;;
79585;SDS011;69054;50.866;4.636;2023-04-24T00:43:32;16.42;;;10.10;;
79585;SDS011;69054;50.866;4.636;2023-04-24T00:45:57;20.92;;;10.45;;
79585;SDS011;69054;50.866;4.636;2023-04-24T00:48:24;16.13;;;10.55;;
79585;SDS011;69054;50.866;4.636;2023-04-24T00:50:50;20.90;;;10.70;;
79585;SDS011;69054;50.866;4.636;2023-04-24T00:53:16;16.05;;;10.50;;
79585;SDS011;69054;50.866;4.636;2023-04-24T00:55:41;16.92;;;8.88;;
79585;SDS011;69054;50.866;4.636;2023-04-24T00:58:07;15.50;;;10.45;;
79585;SDS011;69054;50.866;4.636;2023-04-24T01:00:32;16.10;;;8.95;;
79585;SDS011;69054;50.866;4.636;2023-04-24T01:02:58;16.98;;;9.93;;
79585;SDS011;69054;50.866;4.636;2023-04-24T01:05:26;19.35;;;10.48;;
79585;SDS011;69054;50.866;4.636;2023-04-24T01:07:52;15.68;;;9.90;;
79585;SDS011;69054;50.866;4.636;2023-04-24T01:10:18;12.30;;;8.73;;
79585;SDS011;69054;50.866;4.636;2023-04-24T01:12:45;13.38;;;8.98;;
79585;SDS011;69054;50.866;4.636;2023-04-24T01:15:11;23.65;;;13.00;;
79585;SDS011;69054;50.866;4.636;2023-04-24T01:17:36;15.85;;;9.02;;
79585;SDS011;69054;50.866;4.636;2023-04-24T01:20:03;17.02;;;9.38;;
79585;SDS011;69054;50.866;4.636;2023-04-24T01:22:30;17.40;;;10.13;;
79585;SDS011;69054;50.866;4.636;2023-04-24T01:24:56;18.13;;;10.38;;
79585;SDS011;69054;50.866;4.636;2023-04-24T01:27:22;15.13;;;9.65;;
79585;SDS011;69054;50.866;4.636;2023-04-24T01:29:47;15.00;;;9.32;;
79585;SDS011;69054;50.866;4.636;2023-04-24T01:32:14;15.15;;;9.20;;
79585;SDS011;69054;50.866;4.636;2023-04-24T01:34:40;16.25;;;9.35;;
79585;SDS011;69054;50.866;4.636;2023-04-24T01:37:05;16.05;;;9.73;;
79585;SDS011;69054;50.866;4.636;2023-04-24T01:39:31;15.88;;;9.18;;
79585;SDS011;69054;50.866;4.636;2023-04-24T01:41:58;12.73;;;9.02;;
79585;SDS011;69054;50.866;4.636;2023-04-24T01:44:25;16.50;;;9.75;;
79585;SDS011;69054;50.866;4.636;2023-04-24T01:46:51;14.32;;;8.35;;
79585;SDS011;69054;50.866;4.636;2023-04-24T01:49:18;16.13;;;9.13;;
79585;SDS011;69054;50.866;4.636;2023-04-24T01:51:45;16.63;;;8.43;;
79585;SDS011;69054;50.866;4.636;2023-04-24T01:54:10;14.27;;;8.50;;
79585;SDS011;69054;50.866;4.636;2023-04-24T01:56:36;14.35;;;8.77;;
79585;SDS011;69054;50.866;4.636;2023-04-24T01:59:07;13.52;;;9.13;;
79585;SDS011;69054;50.866;4.636;2023-04-24T02:01:35;13.40;;;7.88;;
79585;SDS011;69054;50.866;4.636;2023-04-24T02:04:02;14.45;;;8.13;;
79585;SDS011;69054;50.866;4.636;2023-04-24T02:06:28;11.23;;;7.28;;
79585;SDS011;69054;50.866;4.636;2023-04-24T02:08:53;9.43;;;6.50;;
79585;SDS011;69054;50.866;4.636;2023-04-24T02:11:19;9.43;;;7.68;;
79585;SDS011;69054;50.866;4.636;2023-04-24T02:13:44;15.65;;;9.65;;
79585;SDS011;69054;50.866;4.636;2023-04-24T02:16:10;18.23;;;10.20;;
79585;SDS011;69054;50.866;4.636;2023-04-24T02:18:35;18.88;;;9.63;;
79585;SDS011;69054;50.866;4.636;2023-04-24T02:21:01;18.60;;;11.32;;
79585;SDS011;69054;50.866;4.636;2023-04-24T02:23:26;15.60;;;8.50;;
79585;SDS011;69054;50.866;4.636;2023-04-24T02:25:52;17.75;;;10.57;;
79585;SDS011;69054;50.866;4.636;2023-04-24T02:28:18;21.42;;;11.43;;
79585;SDS011;69054;50.866;4.636;2023-04-24T02:30:44;14.93;;;9.15;;
79585;SDS011;69054;50.866;4.636;2023-04-24T02:33:09;16.88;;;9.90;;
79585;SDS011;69054;50.866;4.636;2023-04-24T02:35:34;14.18;;;7.55;;
79585;SDS011;69054;50.866;4.636;2023-04-24T02:38:00;16.45;;;10.40;;
79585;SDS011;69054;50.866;4.636;2023-04-24T02:40:25;17.52;;;11.27;;
79585;SDS011;69054;50.866;4.636;2023-04-24T02:42:51;18.45;;;11.05;;
79585;SDS011;69054;50.866;4.636;2023-04-24T02:45:16;13.85;;;9.13;;
79585;SDS011;69054;50.866;4.636;2023-04-24T02:47:41;22.05;;;12.77;;
79585;SDS011;69054;50.866;4.636;2023-04-24T02:50:07;18.48;;;9.90;;
79585;SDS011;69054;50.866;4.636;2023-04-24T02:52:33;13.68;;;8.27;;
79585;SDS011;69054;50.866;4.636;2023-04-24T02:54:58;14.18;;;8.18;;
79585;SDS011;69054;50.866;4.636;2023-04-24T02:57:23;15.88;;;9.82;;
79585;SDS011;69054;50.866;4.636;2023-04-24T02:59:49;18.65;;;10.52;;
79585;SDS011;69054;50.866;4.636;2023-04-24T03:02:14;13.73;;;9.77;;
79585;SDS011;69054;50.866;4.636;2023-04-24T03:04:41;11.48;;;7.25;;
79585;SDS011;69054;50.866;4.636;2023-04-24T03:07:07;17.15;;;10.38;;
79585;SDS011;69054;50.866;4.636;2023-04-24T03:09:33;17.55;;;9.68;;
79585;SDS011;69054;50.866;4.636;2023-04-24T03:11:58;13.05;;;9.23;;
79585;SDS011;69054;50.866;4.636;2023-04-24T03:14:24;14.38;;;8.80;;
79585;SDS011;69054;50.866;4.636;2023-04-24T03:16:49;17.10;;;8.77;;
79585;SDS011;69054;50.866;4.636;2023-04-24T03:19:15;11.43;;;8.20;;
79585;SDS011;69054;50.866;4.636;2023-04-24T03:21:40;14.20;;;7.78;;
79585;SDS011;69054;50.866;4.636;2023-04-24T03:24:09;13.73;;;7.50;;
79585;SDS011;69054;50.866;4.636;2023-04-24T03:26:34;12.95;;;8.25;;
79585;SDS011;69054;50.866;4.636;2023-04-24T03:29:00;9.48;;;7.18;;
79585;SDS011;69054;50.866;4.636;2023-04-24T03:31:26;10.85;;;7.15;;
79585;SDS011;69054;50.866;4.636;2023-04-24T03:33:51;13.70;;;8.27;;
79585;SDS011;69054;50.866;4.636;2023-04-24T03:36:16;9.23;;;7.25;;
79585;SDS011;69054;50.866;4.636;2023-04-24T03:38:44;58.35;;;29.02;;
79585;SDS011;69054;50.866;4.636;2023-04-24T03:41:10;85.82;;;47.33;;
79585;SDS011;69054;50.866;4.636;2023-04-24T03:43:35;18.38;;;14.63;;
79585;SDS011;69054;50.866;4.636;2023-04-24T03:46:01;17.85;;;8.73;;
79585;SDS011;69054;50.866;4.636;2023-04-24T03:48:26;12.60;;;9.98;;
79585;SDS011;69054;50.866;4.636;2023-04-24T03:50:52;21.77;;;13.32;;
79585;SDS011;69054;50.866;4.636;2023-04-24T03:53:17;14.48;;;9.63;;
79585;SDS011;69054;50.866;4.636;2023-04-24T03:55:43;12.57;;;8.18;;
79585;SDS011;69054;50.866;4.636;2023-04-24T03:58:08;13.27;;;8.32;;
79585;SDS011;69054;50.866;4.636;2023-04-24T04:00:33;12.48;;;7.68;;
79585;SDS011;69054;50.866;4.636;2023-04-24T04:02:59;7.78;;;5.18;;
79585;SDS011;69054;50.866;4.636;2023-04-24T04:05:25;11.43;;;6.63;;
79585;SDS011;69054;50.866;4.636;2023-04-24T04:07:50;7.18;;;4.90;;
79585;SDS011;69054;50.866;4.636;2023-04-24T04:10:15;13.98;;;6.32;;
79585;SDS011;69054;50.866;4.636;2023-04-24T04:12:42;12.32;;;7.28;;
79585;SDS011;69054;50.866;4.636;2023-04-24T04:15:07;9.40;;;5.50;;
79585;SDS011;69054;50.866;4.636;2023-04-24T04:17:33;6.53;;;4.72;;
79585;SDS011;69054;50.866;4.636;2023-04-24T04:19:58;14.90;;;7.53;;
79585;SDS011;69054;50.866;4.636;2023-04-24T04:22:24;11.52;;;6.13;;
79585;SDS011;69054;50.866;4.636;2023-04-24T04:24:49;11.68;;;7.43;;
79585;SDS011;69054;50.866;4.636;2023-04-24T04:27:16;8.20;;;5.57;;
79585;SDS011;69054;50.866;4.636;2023-04-24T04:29:41;11.30;;;6.72;;
79585;SDS011;69054;50.866;4.636;2023-04-24T04:32:07;8.98;;;5.95;;
79585;SDS011;69054;50.866;4.636;2023-04-24T04:34:32;13.75;;;7.22;;
79585;SDS011;69054;50.866;4.636;2023-04-24T04:36:58;9.13;;;4.65;;
79585;SDS011;69054;50.866;4.636;2023-04-24T04:39:26;11.68;;;5.35;;
79585;SDS011;69054;50.866;4.636;2023-04-24T04:41:53;10.75;;;6.80;;
79585;SDS011;69054;50.866;4.636;2023-04-24T04:44:19;11.20;;;5.70;;
79585;SDS011;69054;50.866;4.636;2023-04-24T04:46:44;12.10;;;6.80;;
79585;SDS011;69054;50.866;4.636;2023-04-24T04:49:10;9.50;;;6.40;;
79585;SDS011;69054;50.866;4.636;2023-04-24T04:51:36;8.02;;;5.32;;
79585;SDS011;69054;50.866;4.636;2023-04-24T04:54:01;9.05;;;5.25;;
79585;SDS011;69054;50.866;4.636;2023-04-24T04:56:27;14.65;;;5.80;;
79585;SDS011;69054;50.866;4.636;2023-04-24T04:58:52;10.10;;;6.25;;
79585;SDS011;69054;50.866;4.636;2023-04-24T05:01:18;11.43;;;7.35;;
79585;SDS011;69054;50.866;4.636;2023-04-24T05:03:44;10.77;;;6.18;;
79585;SDS011;69054;50.866;4.636;2023-04-24T05:06:09;12.93;;;7.40;;
79585;SDS011;69054;50.866;4.636;2023-04-24T05:08:35;11.43;;;7.22;;
79585;SDS011;69054;50.866;4.636;2023-04-24T05:11:00;15.38;;;7.95;;
79585;SDS011;69054;50.866;4.636;2023-04-24T05:13:26;15.20;;;8.20;;
79585;SDS011;69054;50.866;4.636;2023-04-24T05:15:51;12.50;;;7.07;;
79585;SDS011;69054;50.866;4.636;2023-04-24T05:18:18;12.00;;;6.18;;
79585;SDS011;69054;50.866;4.636;2023-04-24T05:20:43;8.98;;;6.10;;
79585;SDS011;69054;50.866;4.636;2023-04-24T05:23:10;19.27;;;10.27;;
79585;SDS011;69054;50.866;4.636;2023-04-24T05:25:36;14.32;;;9.82;;
79585;SDS011;69054;50.866;4.636;2023-04-24T05:28:03;14.52;;;8.30;;
79585;SDS011;69054;50.866;4.636;2023-04-24T05:30:29;16.70;;;7.93;;
79585;SDS011;69054;50.866;4.636;2023-04-24T05:32:55;11.07;;;7.22;;
79585;SDS011;69054;50.866;4.636;2023-04-24T05:35:20;17.75;;;11.00;;
79585;SDS011;69054;50.866;4.636;2023-04-24T05:37:45;14.23;;;7.30;;
79585;SDS011;69054;50.866;4.636;2023-04-24T05:40:11;18.35;;;9.25;;
79585;SDS011;69054;50.866;4.636;2023-04-24T05:42:37;17.00;;;9.82;;
79585;SDS011;69054;50.866;4.636;2023-04-24T05:45:03;20.90;;;10.45;;
79585;SDS011;69054;50.866;4.636;2023-04-24T05:47:28;18.77;;;10.43;;
79585;SDS011;69054;50.866;4.636;2023-04-24T05:49:54;15.18;;;8.90;;
79585;SDS011;69054;50.866;4.636;2023-04-24T05:52:20;16.15;;;9.15;;
79585;SDS011;69054;50.866;4.636;2023-04-24T05:54:45;16.77;;;9.82;;
79585;SDS011;69054;50.866;4.636;2023-04-24T05:57:10;16.33;;;8.98;;
79585;SDS011;69054;50.866;4.636;2023-04-24T05:59:36;14.50;;;9.20;;
79585;SDS011;69054;50.866;4.636;2023-04-24T06:02:03;21.25;;;10.75;;
79585;SDS011;69054;50.866;4.636;2023-04-24T06:04:28;18.38;;;10.48;;
79585;SDS011;69054;50.866;4.636;2023-04-24T06:06:54;17.25;;;9.90;;
79585;SDS011;69054;50.866;4.636;2023-04-24T06:09:21;24.08;;;11.43;;
79585;SDS011;69054;50.866;4.636;2023-04-24T06:11:47;17.20;;;9.60;;
79585;SDS011;69054;50.866;4.636;2023-04-24T06:14:14;16.33;;;9.55;;
79585;SDS011;69054;50.866;4.636;2023-04-24T06:16:41;17.17;;;8.52;;
79585;SDS011;69054;50.866;4.636;2023-04-24T06:19:08;21.90;;;9.35;;
79585;SDS011;69054;50.866;4.636;2023-04-24T06:21:33;18.58;;;9.93;;
79585;SDS011;69054;50.866;4.636;2023-04-24T06:23:58;20.02;;;10.95;;
79585;SDS011;69054;50.866;4.636;2023-04-24T06:26:24;18.58;;;10.43;;
79585;SDS011;69054;50.866;4.636;2023-04-24T06:28:51;12.15;;;9.80;;
79585;SDS011;69054;50.866;4.636;2023-04-24T06:31:18;16.45;;;9.90;;
79585;SDS011;69054;50.866;4.636;2023-04-24T06:33:44;15.30;;;8.80;;
79585;SDS011;69054;50.866;4.636;2023-04-24T06:36:10;13.30;;;8.07;;
79585;SDS011;69054;50.866;4.636;2023-04-24T06:38:35;15.75;;;9.43;;
79585;SDS011;69054;50.866;4.636;2023-04-24T06:41:01;20.25;;;10.05;;
79585;SDS011;69054;50.866;4.636;2023-04-24T06:43:30;18.73;;;10.52;;
79585;SDS011;69054;50.866;4.636;2023-04-24T06:45:55;17.83;;;9.05;;
79585;SDS011;69054;50.866;4.636;2023-04-24T06:48:22;15.60;;;10.20;;
79585;SDS011;69054;50.866;4.636;2023-04-24T06:50:47;20.25;;;10.88;;
79585;SDS011;69054;50.866;4.636;2023-04-24T06:53:12;20.42;;;10.30;;
79585;SDS011;69054;50.866;4.636;2023-04-24T06:55:39;22.88;;;10.65;;
79585;SDS011;69054;50.866;4.636;2023-04-24T06:58:05;23.58;;;12.65;;
79585;SDS011;69054;50.866;4.636;2023-04-24T07:00:31;25.35;;;13.48;;
79585;SDS011;69054;50.866;4.636;2023-04-24T07:02:56;25.67;;;13.15;;
79585;SDS011;69054;50.866;4.636;2023-04-24T07:05:22;21.60;;;12.30;;
79585;SDS011;69054;50.866;4.636;2023-04-24T07:07:48;20.10;;;10.18;;
79585;SDS011;69054;50.866;4.636;2023-04-24T07:10:16;21.88;;;10.30;;
79585;SDS011;69054;50.866;4.636;2023-04-24T07:12:42;21.13;;;11.52;;
79585;SDS011;69054;50.866;4.636;2023-04-24T07:15:07;22.52;;;11.63;;
79585;SDS011;69054;50.866;4.636;2023-04-24T07:17:33;17.65;;;11.07;;
79585;SDS011;69054;50.866;4.636;2023-04-24T07:19:59;24.40;;;12.75;;
79585;SDS011;69054;50.866;4.636;2023-04-24T07:22:25;27.60;;;13.50;;
79585;SDS011;69054;50.866;4.636;2023-04-24T07:24:52;28.35;;;13.00;;
79585;SDS011;69054;50.866;4.636;2023-04-24T07:27:17;23.95;;;13.38;;
79585;SDS011;69054;50.866;4.636;2023-04-24T07:29:43;18.75;;;10.50;;
79585;SDS011;69054;50.866;4.636;2023-04-24T07:32:08;25.08;;;11.88;;
79585;SDS011;69054;50.866;4.636;2023-04-24T07:34:34;24.85;;;12.63;;
79585;SDS011;69054;50.866;4.636;2023-04-24T07:37:00;19.58;;;12.63;;
79585;SDS011;69054;50.866;4.636;2023-04-24T07:39:25;25.98;;;13.32;;
79585;SDS011;69054;50.866;4.636;2023-04-24T07:41:51;25.58;;;12.68;;
79585;SDS011;69054;50.866;4.636;2023-04-24T07:44:17;17.15;;;10.00;;
79585;SDS011;69054;50.866;4.636;2023-04-24T07:46:42;14.55;;;8.55;;
79585;SDS011;69054;50.866;4.636;2023-04-24T07:49:07;19.98;;;11.60;;
79585;SDS011;69054;50.866;4.636;2023-04-24T07:51:33;20.73;;;10.52;;
79585;SDS011;69054;50.866;4.636;2023-04-24T07:54:03;20.27;;;10.43;;
79585;SDS011;69054;50.866;4.636;2023-04-24T07:56:31;21.45;;;11.25;;
79585;SDS011;69054;50.866;4.636;2023-04-24T07:58:57;16.23;;;9.32;;
79585;SDS011;69054;50.866;4.636;2023-04-24T08:01:22;17.55;;;8.88;;
79585;SDS011;69054;50.866;4.636;2023-04-24T08:03:47;11.10;;;7.70;;
79585;SDS011;69054;50.866;4.636;2023-04-24T08:06:13;17.38;;;10.60;;
79585;SDS011;69054;50.866;4.636;2023-04-24T08:08:38;16.40;;;10.23;;
79585;SDS011;69054;50.866;4.636;2023-04-24T08:11:04;12.38;;;7.97;;
79585;SDS011;69054;50.866;4.636;2023-04-24T08:13:29;18.40;;;8.10;;
79585;SDS011;69054;50.866;4.636;2023-04-24T08:15:56;14.82;;;8.55;;
79585;SDS011;69054;50.866;4.636;2023-04-24T08:18:22;13.65;;;7.80;;
79585;SDS011;69054;50.866;4.636;2023-04-24T08:20:48;14.60;;;8.10;;
79585;SDS011;69054;50.866;4.636;2023-04-24T08:23:13;13.48;;;7.53;;
79585;SDS011;69054;50.866;4.636;2023-04-24T08:25:39;11.23;;;5.88;;
79585;SDS011;69054;50.866;4.636;2023-04-24T08:28:05;12.52;;;8.30;;
79585;SDS011;69054;50.866;4.636;2023-04-24T08:30:31;17.38;;;8.27;;
79585;SDS011;69054;50.866;4.636;2023-04-24T08:32:57;15.90;;;8.13;;
79585;SDS011;69054;50.866;4.636;2023-04-24T08:35:22;14.80;;;8.25;;
79585;SDS011;69054;50.866;4.636;2023-04-24T08:37:48;14.02;;;7.32;;
79585;SDS011;69054;50.866;4.636;2023-04-24T08:40:14;18.23;;;9.73;;
79585;SDS011;69054;50.866;4.636;2023-04-24T08:42:42;18.48;;;8.57;;
79585;SDS011;69054;50.866;4.636;2023-04-24T08:45:08;11.55;;;7.70;;
79585;SDS011;69054;50.866;4.636;2023-04-24T08:47:35;13.35;;;7.20;;
79585;SDS011;69054;50.866;4.636;2023-04-24T08:50:02;9.27;;;5.60;;
79585;SDS011;69054;50.866;4.636;2023-04-24T08:52:31;15.35;;;6.85;;
79585;SDS011;69054;50.866;4.636;2023-04-24T08:54:58;12.35;;;7.68;;
79585;SDS011;69054;50.866;4.636;2023-04-24T08:57:24;7.13;;;4.28;;
79585;SDS011;69054;50.866;4.636;2023-04-24T08:59:51;10.73;;;5.43;;
79585;SDS011;69054;50.866;4.636;2023-04-24T09:02:17;15.35;;;6.88;;
79585;SDS011;69054;50.866;4.636;2023-04-24T09:04:43;12.60;;;5.60;;
79585;SDS011;69054;50.866;4.636;2023-04-24T09:07:10;10.40;;;5.97;;
79585;SDS011;69054;50.866;4.636;2023-04-24T09:09:37;11.25;;;6.13;;
79585;SDS011;69054;50.866;4.636;2023-04-24T09:12:04;12.88;;;5.75;;
79585;SDS011;69054;50.866;4.636;2023-04-24T09:14:29;38.45;;;18.55;;
79585;SDS011;69054;50.866;4.636;2023-04-24T09:16:56;22.05;;;9.88;;
79585;SDS011;69054;50.866;4.636;2023-04-24T09:19:22;8.40;;;5.22;;
79585;SDS011;69054;50.866;4.636;2023-04-24T09:21:47;10.70;;;5.63;;
79585;SDS011;69054;50.866;4.636;2023-04-24T09:24:17;10.35;;;6.45;;
79585;SDS011;69054;50.866;4.636;2023-04-24T09:26:45;10.45;;;5.10;;
79585;SDS011;69054;50.866;4.636;2023-04-24T09:29:14;8.68;;;5.18;;
79585;SDS011;69054;50.866;4.636;2023-04-24T09:31:41;8.98;;;5.57;;
79585;SDS011;69054;50.866;4.636;2023-04-24T09:34:08;10.77;;;5.90;;
79585;SDS011;69054;50.866;4.636;2023-04-24T09:36:37;7.93;;;5.03;;
79585;SDS011;69054;50.866;4.636;2023-04-24T09:39:05;6.55;;;4.35;;
79585;SDS011;69054;50.866;4.636;2023-04-24T09:41:33;10.32;;;5.40;;
79585;SDS011;69054;50.866;4.636;2023-04-24T09:44:10;7.53;;;4.65;;
79585;SDS011;69054;50.866;4.636;2023-04-24T09:46:40;9.80;;;4.05;;
79585;SDS011;69054;50.866;4.636;2023-04-24T09:49:10;8.00;;;4.15;;
79585;SDS011;69054;50.866;4.636;2023-04-24T09:51:40;7.35;;;4.68;;
79585;SDS011;69054;50.866;4.636;2023-04-24T09:54:15;8.45;;;4.97;;
79585;SDS011;69054;50.866;4.636;2023-04-24T09:56:43;5.97;;;3.97;;
79585;SDS011;69054;50.866;4.636;2023-04-24T09:59:10;6.65;;;4.70;;
79585;SDS011;69054;50.866;4.636;2023-04-24T10:01:35;10.57;;;4.82;;
79585;SDS011;69054;50.866;4.636;2023-04-24T10:04:03;11.75;;;5.03;;
79585;SDS011;69054;50.866;4.636;2023-04-24T10:06:35;5.88;;;4.07;;
79585;SDS011;69054;50.866;4.636;2023-04-24T10:09:01;8.77;;;5.32;;
79585;SDS011;69054;50.866;4.636;2023-04-24T10:11:28;7.40;;;4.55;;
79585;SDS011;69054;50.866;4.636;2023-04-24T10:13:55;7.35;;;4.80;;
79585;SDS011;69054;50.866;4.636;2023-04-24T10:16:22;7.45;;;4.53;;
79585;SDS011;69054;50.866;4.636;2023-04-24T10:18:48;5.18;;;3.67;;
79585;SDS011;69054;50.866;4.636;2023-04-24T10:21:14;7.75;;;4.65;;
79585;SDS011;69054;50.866;4.636;2023-04-24T10:23:40;7.20;;;4.45;;
79585;SDS011;69054;50.866;4.636;2023-04-24T10:26:06;7.38;;;4.40;;
79585;SDS011;69054;50.866;4.636;2023-04-24T10:28:34;10.18;;;4.82;;
79585;SDS011;69054;50.866;4.636;2023-04-24T10:31:01;6.88;;;3.85;;
79585;SDS011;69054;50.866;4.636;2023-04-24T10:33:27;7.07;;;4.75;;
79585;SDS011;69054;50.866;4.636;2023-04-24T10:35:54;8.45;;;4.40;;
79585;SDS011;69054;50.866;4.636;2023-04-24T10:38:24;7.50;;;4.28;;
79585;SDS011;69054;50.866;4.636;2023-04-24T10:40:51;5.80;;;3.67;;
79585;SDS011;69054;50.866;4.636;2023-04-24T10:43:23;8.60;;;4.53;;
79585;SDS011;69054;50.866;4.636;2023-04-24T10:48:41;9.57;;;4.10;;
79585;SDS011;69054;50.866;4.636;2023-04-24T10:51:11;7.07;;;4.32;;
79585;SDS011;69054;50.866;4.636;2023-04-24T10:53:38;6.55;;;4.40;;
79585;SDS011;69054;50.866;4.636;2023-04-24T10:56:04;8.93;;;4.57;;
79585;SDS011;69054;50.866;4.636;2023-04-24T10:58:41;6.07;;;3.92;;
79585;SDS011;69054;50.866;4.636;2023-04-24T11:01:23;9.15;;;4.60;;
79585;SDS011;69054;50.866;4.636;2023-04-24T11:03:54;7.20;;;4.38;;
79585;SDS011;69054;50.866;4.636;2023-04-24T11:06:34;5.45;;;3.35;;
79585;SDS011;69054;50.866;4.636;2023-04-24T11:09:04;6.55;;;4.53;;
79585;SDS011;69054;50.866;4.636;2023-04-24T11:11:32;5.38;;;4.32;;
79585;SDS011;69054;50.866;4.636;2023-04-24T11:16:31;6.80;;;5.80;;
79585;SDS011;69054;50.866;4.636;2023-04-24T11:19:00;6.65;;;4.10;;
79585;SDS011;69054;50.866;4.636;2023-04-24T11:21:32;6.50;;;5.15;;
79585;SDS011;69054;50.866;4.636;2023-04-24T11:27:15;7.20;;;4.10;;
79585;SDS011;69054;50.866;4.636;2023-04-24T11:35:12;9.27;;;4.90;;
79585;SDS011;69054;50.866;4.636;2023-04-24T11:37:39;8.85;;;4.68;;
79585;SDS011;69054;50.866;4.636;2023-04-24T11:40:24;5.60;;;4.35;;
79585;SDS011;69054;50.866;4.636;2023-04-24T11:42:51;7.30;;;4.78;;
79585;SDS011;69054;50.866;4.636;2023-04-24T11:45:18;7.25;;;4.72;;
79585;SDS011;69054;50.866;4.636;2023-04-24T11:50:13;8.25;;;5.15;;
79585;SDS011;69054;50.866;4.636;2023-04-24T11:52:41;8.25;;;4.85;;
79585;SDS011;69054;50.866;4.636;2023-04-24T11:55:23;11.63;;;4.43;;
79585;SDS011;69054;50.866;4.636;2023-04-24T11:57:55;7.50;;;5.13;;
79585;SDS011;69054;50.866;4.636;2023-04-24T12:02:49;6.25;;;4.40;;
79585;SDS011;69054;50.866;4.636;2023-04-24T12:05:27;7.13;;;4.63;;
79585;SDS011;69054;50.866;4.636;2023-04-24T12:07:53;8.10;;;4.80;;
79585;SDS011;69054;50.866;4.636;2023-04-24T12:10:22;6.40;;;4.53;;
79585;SDS011;69054;50.866;4.636;2023-04-24T12:15:16;7.25;;;4.85;;
79585;SDS011;69054;50.866;4.636;2023-04-24T12:17:43;8.98;;;4.95;;
79585;SDS011;69054;50.866;4.636;2023-04-24T12:20:09;7.50;;;4.30;;
79585;SDS011;69054;50.866;4.636;2023-04-24T12:22:45;6.15;;;3.60;;
79585;SDS011;69054;50.866;4.636;2023-04-24T12:25:19;9.25;;;5.10;;
79585;SDS011;69054;50.866;4.636;2023-04-24T12:27:46;8.43;;;4.88;;
79585;SDS011;69054;50.866;4.636;2023-04-24T12:30:16;9.20;;;5.35;;
79585;SDS011;69054;50.866;4.636;2023-04-24T12:33:03;9.57;;;5.40;;
79585;SDS011;69054;50.866;4.636;2023-04-24T12:35:29;9.93;;;5.45;;
79585;SDS011;69054;50.866;4.636;2023-04-24T12:38:05;6.93;;;4.70;;
79585;SDS011;69054;50.866;4.636;2023-04-24T12:40:34;7.35;;;5.03;;
79585;SDS011;69054;50.866;4.636;2023-04-24T12:42:59;8.98;;;5.15;;
79585;SDS011;69054;50.866;4.636;2023-04-24T12:45:25;8.43;;;4.72;;
79585;SDS011;69054;50.866;4.636;2023-04-24T12:47:52;7.13;;;4.70;;
79585;SDS011;69054;50.866;4.636;2023-04-24T12:50:18;7.18;;;5.57;;
79585;SDS011;69054;50.866;4.636;2023-04-24T12:52:44;8.10;;;4.95;;
79585;SDS011;69054;50.866;4.636;2023-04-24T12:55:09;6.07;;;4.60;;
79585;SDS011;69054;50.866;4.636;2023-04-24T12:57:36;8.60;;;4.43;;
79585;SDS011;69054;50.866;4.636;2023-04-24T13:00:03;8.90;;;4.47;;
79585;SDS011;69054;50.866;4.636;2023-04-24T13:02:29;7.18;;;4.35;;
79585;SDS011;69054;50.866;4.636;2023-04-24T13:04:56;7.75;;;4.18;;
79585;SDS011;69054;50.866;4.636;2023-04-24T13:07:22;8.07;;;4.93;;
79585;SDS011;69054;50.866;4.636;2023-04-24T13:09:48;6.60;;;4.38;;
79585;SDS011;69054;50.866;4.636;2023-04-24T13:12:15;5.50;;;3.90;;
79585;SDS011;69054;50.866;4.636;2023-04-24T13:14:40;9.52;;;5.45;;
79585;SDS011;69054;50.866;4.636;2023-04-24T13:17:06;6.03;;;4.30;;
79585;SDS011;69054;50.866;4.636;2023-04-24T13:19:38;6.80;;;4.05;;
79585;SDS011;69054;50.866;4.636;2023-04-24T13:22:05;4.25;;;3.25;;
79585;SDS011;69054;50.866;4.636;2023-04-24T13:24:31;6.10;;;4.32;;
79585;SDS011;69054;50.866;4.636;2023-04-24T13:26:58;7.97;;;4.97;;
79585;SDS011;69054;50.866;4.636;2023-04-24T13:29:23;6.53;;;4.40;;
79585;SDS011;69054;50.866;4.636;2023-04-24T13:31:52;7.28;;;4.22;;
79585;SDS011;69054;50.866;4.636;2023-04-24T13:34:20;6.47;;;4.35;;
79585;SDS011;69054;50.866;4.636;2023-04-24T13:36:46;5.70;;;4.20;;
79585;SDS011;69054;50.866;4.636;2023-04-24T13:39:12;7.93;;;4.65;;
79585;SDS011;69054;50.866;4.636;2023-04-24T13:41:37;5.35;;;3.75;;
79585;SDS011;69054;50.866;4.636;2023-04-24T13:44:03;5.47;;;3.47;;
79585;SDS011;69054;50.866;4.636;2023-04-24T13:46:30;4.90;;;3.53;;
79585;SDS011;69054;50.866;4.636;2023-04-24T13:48:56;5.18;;;3.33;;
79585;SDS011;69054;50.866;4.636;2023-04-24T13:51:22;5.35;;;3.10;;
79585;SDS011;69054;50.866;4.636;2023-04-24T13:53:48;5.20;;;3.63;;
79585;SDS011;69054;50.866;4.636;2023-04-24T13:56:13;5.57;;;3.25;;
79585;SDS011;69054;50.866;4.636;2023-04-24T13:58:39;3.85;;;3.33;;
79585;SDS011;69054;50.866;4.636;2023-04-24T14:01:05;5.97;;;3.80;;
79585;SDS011;69054;50.866;4.636;2023-04-24T14:03:31;5.70;;;3.70;;
79585;SDS011;69054;50.866;4.636;2023-04-24T14:05:58;4.80;;;2.65;;
79585;SDS011;69054;50.866;4.636;2023-04-24T14:08:23;5.63;;;3.40;;
79585;SDS011;69054;50.866;4.636;2023-04-24T14:10:49;7.28;;;3.63;;
79585;SDS011;69054;50.866;4.636;2023-04-24T14:13:15;5.70;;;3.40;;
79585;SDS011;69054;50.866;4.636;2023-04-24T14:15:41;5.78;;;3.60;;
79585;SDS011;69054;50.866;4.636;2023-04-24T14:18:07;6.05;;;3.30;;
79585;SDS011;69054;50.866;4.636;2023-04-24T14:20:32;5.70;;;3.30;;
79585;SDS011;69054;50.866;4.636;2023-04-24T14:22:57;5.28;;;3.60;;
79585;SDS011;69054;50.866;4.636;2023-04-24T14:25:24;5.47;;;3.47;;
79585;SDS011;69054;50.866;4.636;2023-04-24T14:27:50;5.20;;;3.20;;
79585;SDS011;69054;50.866;4.636;2023-04-24T14:30:15;5.68;;;3.67;;
79585;SDS011;69054;50.866;4.636;2023-04-24T14:32:41;5.00;;;3.42;;
79585;SDS011;69054;50.866;4.636;2023-04-24T14:35:06;4.57;;;3.13;;
79585;SDS011;69054;50.866;4.636;2023-04-24T14:37:32;4.88;;;2.88;;
79585;SDS011;69054;50.866;4.636;2023-04-24T14:39:58;6.25;;;2.70;;
79585;SDS011;69054;50.866;4.636;2023-04-24T14:42:24;6.10;;;3.00;;
79585;SDS011;69054;50.866;4.636;2023-04-24T14:44:49;6.50;;;3.13;;
79585;SDS011;69054;50.866;4.636;2023-04-24T14:47:15;5.80;;;3.55;;
79585;SDS011;69054;50.866;4.636;2023-04-24T14:49:42;5.38;;;3.05;;
79585;SDS011;69054;50.866;4.636;2023-04-24T14:52:09;5.13;;;3.80;;
79585;SDS011;69054;50.866;4.636;2023-04-24T14:54:35;6.25;;;3.17;;